sensor_id;sensor_type;location;lat;lon;timestamp;P1;durP1;ratioP1;P2;durP2;ratioP2
76136;SDS011;68622;53.128;17.966;2023-07-08T00:00:54;11.40;;;3.50;;
76136;SDS011;68622;53.128;17.966;2023-07-08T00:03:41;7.60;;;3.00;;
76136;SDS011;68622;53.128;17.966;2023-07-08T00:06:10;10.30;;;3.50;;
76136;SDS011;68622;53.128;17.966;2023-07-08T00:08:41;7.30;;;3.00;;
76136;SDS011;68622;53.128;17.966;2023-07-08T00:11:11;9.00;;;3.40;;
76136;SDS011;68622;53.128;17.966;2023-07-08T00:13:39;7.00;;;2.80;;
76136;SDS011;68622;53.128;17.966;2023-07-08T00:16:10;10.10;;;3.20;;
76136;SDS011;68622;53.128;17.966;2023-07-08T00:18:38;8.10;;;3.40;;
76136;SDS011;68622;53.128;17.966;2023-07-08T00:21:11;7.60;;;3.20;;
76136;SDS011;68622;53.128;17.966;2023-07-08T00:23:43;7.80;;;3.20;;
76136;SDS011;68622;53.128;17.966;2023-07-08T00:26:13;8.00;;;3.00;;
76136;SDS011;68622;53.128;17.966;2023-07-08T00:28:45;8.70;;;3.30;;
76136;SDS011;68622;53.128;17.966;2023-07-08T00:31:11;7.40;;;3.10;;
76136;SDS011;68622;53.128;17.966;2023-07-08T00:33:38;8.40;;;3.30;;
76136;SDS011;68622;53.128;17.966;2023-07-08T00:36:11;6.30;;;3.10;;
76136;SDS011;68622;53.128;17.966;2023-07-08T00:38:41;7.50;;;3.00;;
76136;SDS011;68622;53.128;17.966;2023-07-08T00:41:12;8.90;;;3.60;;
76136;SDS011;68622;53.128;17.966;2023-07-08T00:48:57;8.10;;;3.40;;
76136;SDS011;68622;53.128;17.966;2023-07-08T00:51:45;9.00;;;3.20;;
76136;SDS011;68622;53.128;17.966;2023-07-08T00:54:12;7.60;;;3.50;;
76136;SDS011;68622;53.128;17.966;2023-07-08T00:59:26;8.40;;;3.30;;
76136;SDS011;68622;53.128;17.966;2023-07-08T01:02:06;9.10;;;3.70;;
76136;SDS011;68622;53.128;17.966;2023-07-08T01:04:47;7.40;;;3.40;;
76136;SDS011;68622;53.128;17.966;2023-07-08T01:07:16;7.80;;;3.80;;
76136;SDS011;68622;53.128;17.966;2023-07-08T01:09:48;9.50;;;3.70;;
76136;SDS011;68622;53.128;17.966;2023-07-08T01:12:22;6.40;;;3.30;;
76136;SDS011;68622;53.128;17.966;2023-07-08T01:14:55;9.30;;;3.60;;
76136;SDS011;68622;53.128;17.966;2023-07-08T01:17:23;9.80;;;3.90;;
76136;SDS011;68622;53.128;17.966;2023-07-08T01:19:50;11.90;;;4.30;;
76136;SDS011;68622;53.128;17.966;2023-07-08T01:22:17;8.90;;;4.30;;
76136;SDS011;68622;53.128;17.966;2023-07-08T01:24:46;8.40;;;4.10;;
76136;SDS011;68622;53.128;17.966;2023-07-08T01:27:14;8.10;;;4.00;;
76136;SDS011;68622;53.128;17.966;2023-07-08T01:29:44;8.70;;;4.10;;
76136;SDS011;68622;53.128;17.966;2023-07-08T01:32:13;10.00;;;4.20;;
76136;SDS011;68622;53.128;17.966;2023-07-08T01:34:44;8.00;;;4.70;;
76136;SDS011;68622;53.128;17.966;2023-07-08T01:37:34;7.70;;;3.80;;
76136;SDS011;68622;53.128;17.966;2023-07-08T01:42:52;8.60;;;4.40;;
76136;SDS011;68622;53.128;17.966;2023-07-08T01:45:20;8.30;;;3.70;;
76136;SDS011;68622;53.128;17.966;2023-07-08T01:47:50;12.00;;;4.40;;
76136;SDS011;68622;53.128;17.966;2023-07-08T01:50:21;10.10;;;4.80;;
76136;SDS011;68622;53.128;17.966;2023-07-08T01:52:49;9.10;;;4.40;;
76136;SDS011;68622;53.128;17.966;2023-07-08T01:55:20;10.20;;;4.70;;
76136;SDS011;68622;53.128;17.966;2023-07-08T01:57:50;9.90;;;4.90;;
76136;SDS011;68622;53.128;17.966;2023-07-08T02:00:18;11.90;;;5.10;;
76136;SDS011;68622;53.128;17.966;2023-07-08T02:02:45;10.00;;;4.70;;
76136;SDS011;68622;53.128;17.966;2023-07-08T02:05:12;11.30;;;5.30;;
76136;SDS011;68622;53.128;17.966;2023-07-08T02:07:39;11.40;;;4.80;;
76136;SDS011;68622;53.128;17.966;2023-07-08T02:10:06;12.50;;;4.90;;
76136;SDS011;68622;53.128;17.966;2023-07-08T02:12:33;10.60;;;4.70;;
76136;SDS011;68622;53.128;17.966;2023-07-08T02:15:00;10.10;;;4.60;;
76136;SDS011;68622;53.128;17.966;2023-07-08T02:17:28;10.00;;;4.90;;
76136;SDS011;68622;53.128;17.966;2023-07-08T02:19:55;8.20;;;4.40;;
76136;SDS011;68622;53.128;17.966;2023-07-08T02:22:22;9.50;;;4.90;;
76136;SDS011;68622;53.128;17.966;2023-07-08T02:24:50;13.60;;;4.90;;
76136;SDS011;68622;53.128;17.966;2023-07-08T02:27:17;10.40;;;5.00;;
76136;SDS011;68622;53.128;17.966;2023-07-08T02:29:44;11.20;;;5.00;;
76136;SDS011;68622;53.128;17.966;2023-07-08T02:32:10;8.80;;;4.50;;
76136;SDS011;68622;53.128;17.966;2023-07-08T02:34:37;10.40;;;5.00;;
76136;SDS011;68622;53.128;17.966;2023-07-08T02:37:04;11.10;;;4.50;;
76136;SDS011;68622;53.128;17.966;2023-07-08T02:39:31;11.50;;;4.30;;
76136;SDS011;68622;53.128;17.966;2023-07-08T02:41:58;10.30;;;5.10;;
76136;SDS011;68622;53.128;17.966;2023-07-08T02:44:24;10.70;;;5.00;;
76136;SDS011;68622;53.128;17.966;2023-07-08T02:46:53;9.40;;;4.50;;
76136;SDS011;68622;53.128;17.966;2023-07-08T02:49:19;12.40;;;4.80;;
76136;SDS011;68622;53.128;17.966;2023-07-08T02:51:46;10.50;;;4.70;;
76136;SDS011;68622;53.128;17.966;2023-07-08T02:54:12;10.80;;;4.80;;
76136;SDS011;68622;53.128;17.966;2023-07-08T02:56:39;11.90;;;4.50;;
76136;SDS011;68622;53.128;17.966;2023-07-08T02:59:06;10.30;;;4.70;;
76136;SDS011;68622;53.128;17.966;2023-07-08T03:01:33;13.90;;;5.10;;
76136;SDS011;68622;53.128;17.966;2023-07-08T03:04:08;10.30;;;4.90;;
76136;SDS011;68622;53.128;17.966;2023-07-08T03:06:40;10.70;;;4.90;;
76136;SDS011;68622;53.128;17.966;2023-07-08T03:09:07;9.90;;;4.60;;
76136;SDS011;68622;53.128;17.966;2023-07-08T03:11:34;10.00;;;4.90;;
76136;SDS011;68622;53.128;17.966;2023-07-08T03:14:02;10.40;;;5.20;;
76136;SDS011;68622;53.128;17.966;2023-07-08T03:16:29;11.00;;;5.30;;
76136;SDS011;68622;53.128;17.966;2023-07-08T03:18:55;11.50;;;5.90;;
76136;SDS011;68622;53.128;17.966;2023-07-08T03:21:24;13.10;;;5.40;;
76136;SDS011;68622;53.128;17.966;2023-07-08T03:23:51;13.40;;;6.00;;
76136;SDS011;68622;53.128;17.966;2023-07-08T03:26:19;14.00;;;5.30;;
76136;SDS011;68622;53.128;17.966;2023-07-08T03:28:50;12.90;;;5.20;;
76136;SDS011;68622;53.128;17.966;2023-07-08T03:31:18;12.70;;;5.40;;
76136;SDS011;68622;53.128;17.966;2023-07-08T03:33:45;10.60;;;5.30;;
76136;SDS011;68622;53.128;17.966;2023-07-08T03:36:16;11.80;;;5.50;;
76136;SDS011;68622;53.128;17.966;2023-07-08T03:38:54;12.10;;;5.10;;
76136;SDS011;68622;53.128;17.966;2023-07-08T03:41:22;10.40;;;4.60;;
76136;SDS011;68622;53.128;17.966;2023-07-08T03:43:49;11.60;;;5.00;;
76136;SDS011;68622;53.128;17.966;2023-07-08T03:46:19;10.70;;;4.50;;
76136;SDS011;68622;53.128;17.966;2023-07-08T03:48:47;11.30;;;5.00;;
76136;SDS011;68622;53.128;17.966;2023-07-08T03:51:19;8.80;;;4.70;;
76136;SDS011;68622;53.128;17.966;2023-07-08T03:53:49;8.80;;;4.40;;
76136;SDS011;68622;53.128;17.966;2023-07-08T03:56:16;8.60;;;4.00;;
76136;SDS011;68622;53.128;17.966;2023-07-08T03:58:43;9.30;;;4.70;;
76136;SDS011;68622;53.128;17.966;2023-07-08T04:01:21;10.10;;;4.60;;
76136;SDS011;68622;53.128;17.966;2023-07-08T04:03:52;10.90;;;5.20;;
76136;SDS011;68622;53.128;17.966;2023-07-08T04:06:21;10.10;;;4.20;;
76136;SDS011;68622;53.128;17.966;2023-07-08T04:08:48;10.10;;;4.80;;
76136;SDS011;68622;53.128;17.966;2023-07-08T04:11:17;9.00;;;4.00;;
76136;SDS011;68622;53.128;17.966;2023-07-08T04:13:46;10.40;;;4.30;;
76136;SDS011;68622;53.128;17.966;2023-07-08T04:16:14;11.00;;;4.50;;
76136;SDS011;68622;53.128;17.966;2023-07-08T04:18:43;8.70;;;4.20;;
76136;SDS011;68622;53.128;17.966;2023-07-08T04:21:10;9.50;;;4.20;;
76136;SDS011;68622;53.128;17.966;2023-07-08T04:23:37;9.60;;;4.60;;
76136;SDS011;68622;53.128;17.966;2023-07-08T04:26:03;10.90;;;5.20;;
76136;SDS011;68622;53.128;17.966;2023-07-08T04:28:30;12.30;;;5.40;;
76136;SDS011;68622;53.128;17.966;2023-07-08T04:30:56;10.10;;;5.00;;
76136;SDS011;68622;53.128;17.966;2023-07-08T04:33:23;9.70;;;4.40;;
76136;SDS011;68622;53.128;17.966;2023-07-08T04:35:50;11.20;;;5.60;;
76136;SDS011;68622;53.128;17.966;2023-07-08T04:38:18;10.30;;;4.80;;
76136;SDS011;68622;53.128;17.966;2023-07-08T04:40:48;9.40;;;4.40;;
76136;SDS011;68622;53.128;17.966;2023-07-08T04:43:17;9.70;;;4.40;;
76136;SDS011;68622;53.128;17.966;2023-07-08T04:45:46;10.20;;;4.50;;
76136;SDS011;68622;53.128;17.966;2023-07-08T04:48:17;10.40;;;4.20;;
76136;SDS011;68622;53.128;17.966;2023-07-08T04:50:45;9.40;;;4.20;;
76136;SDS011;68622;53.128;17.966;2023-07-08T04:53:13;9.90;;;4.70;;
76136;SDS011;68622;53.128;17.966;2023-07-08T04:55:57;8.20;;;3.90;;
76136;SDS011;68622;53.128;17.966;2023-07-08T04:58:24;9.10;;;4.30;;
76136;SDS011;68622;53.128;17.966;2023-07-08T05:00:51;10.10;;;4.50;;
76136;SDS011;68622;53.128;17.966;2023-07-08T05:03:17;9.80;;;4.60;;
76136;SDS011;68622;53.128;17.966;2023-07-08T05:05:44;9.60;;;5.00;;
76136;SDS011;68622;53.128;17.966;2023-07-08T05:08:11;12.90;;;4.30;;
76136;SDS011;68622;53.128;17.966;2023-07-08T05:10:38;11.60;;;4.70;;
76136;SDS011;68622;53.128;17.966;2023-07-08T05:13:06;8.70;;;4.50;;
76136;SDS011;68622;53.128;17.966;2023-07-08T05:15:32;10.40;;;5.10;;
76136;SDS011;68622;53.128;17.966;2023-07-08T05:17:59;9.50;;;5.50;;
76136;SDS011;68622;53.128;17.966;2023-07-08T05:20:26;15.00;;;9.50;;
76136;SDS011;68622;53.128;17.966;2023-07-08T05:22:52;10.30;;;5.60;;
76136;SDS011;68622;53.128;17.966;2023-07-08T05:25:19;10.20;;;5.20;;
76136;SDS011;68622;53.128;17.966;2023-07-08T05:27:47;10.30;;;5.50;;
76136;SDS011;68622;53.128;17.966;2023-07-08T05:30:14;11.70;;;4.80;;
76136;SDS011;68622;53.128;17.966;2023-07-08T05:32:43;12.40;;;6.10;;
76136;SDS011;68622;53.128;17.966;2023-07-08T05:35:10;9.80;;;4.70;;
76136;SDS011;68622;53.128;17.966;2023-07-08T05:37:37;8.50;;;4.80;;
76136;SDS011;68622;53.128;17.966;2023-07-08T05:40:07;9.30;;;4.40;;
76136;SDS011;68622;53.128;17.966;2023-07-08T05:42:35;9.90;;;5.00;;
76136;SDS011;68622;53.128;17.966;2023-07-08T05:45:03;9.20;;;5.00;;
76136;SDS011;68622;53.128;17.966;2023-07-08T05:47:33;10.50;;;5.00;;
76136;SDS011;68622;53.128;17.966;2023-07-08T05:49:59;11.10;;;4.40;;
76136;SDS011;68622;53.128;17.966;2023-07-08T05:52:26;9.60;;;4.60;;
76136;SDS011;68622;53.128;17.966;2023-07-08T05:54:53;12.10;;;5.20;;
76136;SDS011;68622;53.128;17.966;2023-07-08T05:57:19;9.00;;;4.40;;
76136;SDS011;68622;53.128;17.966;2023-07-08T05:59:46;11.20;;;4.60;;
76136;SDS011;68622;53.128;17.966;2023-07-08T06:02:12;9.40;;;5.10;;
76136;SDS011;68622;53.128;17.966;2023-07-08T06:04:39;10.70;;;4.50;;
76136;SDS011;68622;53.128;17.966;2023-07-08T06:07:06;9.10;;;4.70;;
76136;SDS011;68622;53.128;17.966;2023-07-08T06:09:33;12.60;;;4.60;;
76136;SDS011;68622;53.128;17.966;2023-07-08T06:12:00;7.90;;;4.40;;
76136;SDS011;68622;53.128;17.966;2023-07-08T06:14:27;8.90;;;4.50;;
76136;SDS011;68622;53.128;17.966;2023-07-08T06:16:54;9.70;;;4.50;;
76136;SDS011;68622;53.128;17.966;2023-07-08T06:19:23;9.20;;;4.20;;
76136;SDS011;68622;53.128;17.966;2023-07-08T06:21:49;7.20;;;3.50;;
76136;SDS011;68622;53.128;17.966;2023-07-08T06:24:16;9.10;;;3.70;;
76136;SDS011;68622;53.128;17.966;2023-07-08T06:26:43;7.10;;;4.00;;
76136;SDS011;68622;53.128;17.966;2023-07-08T06:29:09;7.10;;;3.40;;
76136;SDS011;68622;53.128;17.966;2023-07-08T06:31:36;8.60;;;3.60;;
76136;SDS011;68622;53.128;17.966;2023-07-08T06:34:02;8.50;;;3.80;;
76136;SDS011;68622;53.128;17.966;2023-07-08T06:36:30;8.40;;;3.20;;
76136;SDS011;68622;53.128;17.966;2023-07-08T06:38:57;8.10;;;3.30;;
76136;SDS011;68622;53.128;17.966;2023-07-08T06:41:24;10.50;;;3.40;;
76136;SDS011;68622;53.128;17.966;2023-07-08T06:43:51;7.80;;;3.00;;
76136;SDS011;68622;53.128;17.966;2023-07-08T06:46:18;10.80;;;3.70;;
76136;SDS011;68622;53.128;17.966;2023-07-08T06:48:47;7.60;;;3.50;;
76136;SDS011;68622;53.128;17.966;2023-07-08T06:51:14;7.70;;;2.70;;
76136;SDS011;68622;53.128;17.966;2023-07-08T06:53:40;7.20;;;3.40;;
76136;SDS011;68622;53.128;17.966;2023-07-08T06:56:07;7.00;;;2.90;;
76136;SDS011;68622;53.128;17.966;2023-07-08T06:58:36;7.10;;;3.40;;
76136;SDS011;68622;53.128;17.966;2023-07-08T07:01:03;7.80;;;3.20;;
76136;SDS011;68622;53.128;17.966;2023-07-08T07:03:29;8.80;;;3.10;;
76136;SDS011;68622;53.128;17.966;2023-07-08T07:05:56;7.30;;;2.80;;
76136;SDS011;68622;53.128;17.966;2023-07-08T07:08:23;11.40;;;2.40;;
76136;SDS011;68622;53.128;17.966;2023-07-08T07:10:49;6.90;;;3.10;;
76136;SDS011;68622;53.128;17.966;2023-07-08T07:13:16;9.70;;;3.50;;
76136;SDS011;68622;53.128;17.966;2023-07-08T07:15:43;9.10;;;4.00;;
76136;SDS011;68622;53.128;17.966;2023-07-08T07:18:10;10.50;;;3.10;;
76136;SDS011;68622;53.128;17.966;2023-07-08T07:20:37;7.50;;;3.10;;
76136;SDS011;68622;53.128;17.966;2023-07-08T07:23:04;9.30;;;3.10;;
76136;SDS011;68622;53.128;17.966;2023-07-08T07:25:30;6.70;;;3.30;;
76136;SDS011;68622;53.128;17.966;2023-07-08T07:27:57;8.30;;;3.50;;
76136;SDS011;68622;53.128;17.966;2023-07-08T07:30:25;7.60;;;3.10;;
76136;SDS011;68622;53.128;17.966;2023-07-08T07:32:51;7.50;;;4.00;;
76136;SDS011;68622;53.128;17.966;2023-07-08T07:35:18;6.30;;;3.50;;
76136;SDS011;68622;53.128;17.966;2023-07-08T07:37:45;9.50;;;3.70;;
76136;SDS011;68622;53.128;17.966;2023-07-08T07:40:12;7.90;;;3.60;;
76136;SDS011;68622;53.128;17.966;2023-07-08T07:42:42;8.10;;;3.40;;
76136;SDS011;68622;53.128;17.966;2023-07-08T07:45:10;9.80;;;3.50;;
76136;SDS011;68622;53.128;17.966;2023-07-08T07:47:38;7.40;;;3.80;;
76136;SDS011;68622;53.128;17.966;2023-07-08T07:50:06;6.70;;;3.40;;
76136;SDS011;68622;53.128;17.966;2023-07-08T07:52:34;7.20;;;3.70;;
76136;SDS011;68622;53.128;17.966;2023-07-08T07:55:02;9.90;;;4.10;;
76136;SDS011;68622;53.128;17.966;2023-07-08T07:57:30;8.30;;;3.50;;
76136;SDS011;68622;53.128;17.966;2023-07-08T07:59:56;9.30;;;3.20;;
76136;SDS011;68622;53.128;17.966;2023-07-08T08:02:23;7.20;;;2.80;;
76136;SDS011;68622;53.128;17.966;2023-07-08T08:04:50;7.60;;;3.50;;
76136;SDS011;68622;53.128;17.966;2023-07-08T08:07:16;8.60;;;3.00;;
76136;SDS011;68622;53.128;17.966;2023-07-08T08:09:43;6.60;;;2.70;;
76136;SDS011;68622;53.128;17.966;2023-07-08T08:12:10;6.40;;;2.80;;
76136;SDS011;68622;53.128;17.966;2023-07-08T08:14:39;8.30;;;3.00;;
76136;SDS011;68622;53.128;17.966;2023-07-08T08:17:05;9.20;;;3.00;;
76136;SDS011;68622;53.128;17.966;2023-07-08T08:19:32;6.80;;;3.20;;
76136;SDS011;68622;53.128;17.966;2023-07-08T08:21:59;8.60;;;3.20;;
76136;SDS011;68622;53.128;17.966;2023-07-08T08:24:26;7.30;;;2.80;;
76136;SDS011;68622;53.128;17.966;2023-07-08T08:26:53;6.00;;;2.80;;
76136;SDS011;68622;53.128;17.966;2023-07-08T08:29:19;7.70;;;3.00;;
76136;SDS011;68622;53.128;17.966;2023-07-08T08:31:46;7.70;;;2.90;;
76136;SDS011;68622;53.128;17.966;2023-07-08T08:34:12;7.50;;;2.90;;
76136;SDS011;68622;53.128;17.966;2023-07-08T08:36:39;7.30;;;3.10;;
76136;SDS011;68622;53.128;17.966;2023-07-08T08:39:06;8.10;;;2.70;;
76136;SDS011;68622;53.128;17.966;2023-07-08T08:41:33;7.10;;;3.30;;
76136;SDS011;68622;53.128;17.966;2023-07-08T08:44:07;5.50;;;2.90;;
76136;SDS011;68622;53.128;17.966;2023-07-08T08:49:27;6.50;;;3.30;;
76136;SDS011;68622;53.128;17.966;2023-07-08T08:52:01;8.00;;;2.90;;
76136;SDS011;68622;53.128;17.966;2023-07-08T08:54:28;6.70;;;2.80;;
76136;SDS011;68622;53.128;17.966;2023-07-08T09:02:31;5.40;;;2.30;;
76136;SDS011;68622;53.128;17.966;2023-07-08T09:05:09;6.00;;;2.50;;
76136;SDS011;68622;53.128;17.966;2023-07-08T09:13:44;7.10;;;2.50;;
76136;SDS011;68622;53.128;17.966;2023-07-08T09:16:20;6.10;;;3.00;;
76136;SDS011;68622;53.128;17.966;2023-07-08T09:18:56;6.70;;;2.60;;
76136;SDS011;68622;53.128;17.966;2023-07-08T09:21:28;9.60;;;2.40;;
76136;SDS011;68622;53.128;17.966;2023-07-08T09:24:00;7.00;;;2.80;;
76136;SDS011;68622;53.128;17.966;2023-07-08T09:26:34;6.40;;;2.50;;
76136;SDS011;68622;53.128;17.966;2023-07-08T09:29:04;5.00;;;2.30;;
76136;SDS011;68622;53.128;17.966;2023-07-08T09:31:37;6.10;;;2.50;;
76136;SDS011;68622;53.128;17.966;2023-07-08T09:34:06;6.50;;;3.20;;
76136;SDS011;68622;53.128;17.966;2023-07-08T09:36:42;5.00;;;2.30;;
76136;SDS011;68622;53.128;17.966;2023-07-08T09:39:11;8.90;;;2.80;;
76136;SDS011;68622;53.128;17.966;2023-07-08T09:41:41;5.10;;;2.30;;
76136;SDS011;68622;53.128;17.966;2023-07-08T09:44:17;5.70;;;2.30;;
76136;SDS011;68622;53.128;17.966;2023-07-08T09:46:57;7.40;;;2.70;;
76136;SDS011;68622;53.128;17.966;2023-07-08T09:49:29;4.80;;;2.10;;
76136;SDS011;68622;53.128;17.966;2023-07-08T09:51:59;5.80;;;2.70;;
76136;SDS011;68622;53.128;17.966;2023-07-08T09:54:26;5.30;;;1.90;;
76136;SDS011;68622;53.128;17.966;2023-07-08T09:57:04;8.80;;;2.60;;
76136;SDS011;68622;53.128;17.966;2023-07-08T09:59:39;7.50;;;2.60;;
76136;SDS011;68622;53.128;17.966;2023-07-08T10:02:26;5.10;;;2.30;;
76136;SDS011;68622;53.128;17.966;2023-07-08T10:07:47;6.80;;;2.60;;
76136;SDS011;68622;53.128;17.966;2023-07-08T10:10:19;6.70;;;2.70;;
76136;SDS011;68622;53.128;17.966;2023-07-08T10:12:57;5.20;;;2.50;;
76136;SDS011;68622;53.128;17.966;2023-07-08T10:15:27;6.40;;;2.30;;
76136;SDS011;68622;53.128;17.966;2023-07-08T10:18:00;5.40;;;2.50;;
76136;SDS011;68622;53.128;17.966;2023-07-08T10:20:29;5.40;;;2.50;;
76136;SDS011;68622;53.128;17.966;2023-07-08T10:23:09;5.30;;;2.40;;
76136;SDS011;68622;53.128;17.966;2023-07-08T10:28:26;5.30;;;2.70;;
76136;SDS011;68622;53.128;17.966;2023-07-08T10:31:13;5.40;;;2.30;;
76136;SDS011;68622;53.128;17.966;2023-07-08T10:42:17;7.20;;;2.70;;
76136;SDS011;68622;53.128;17.966;2023-07-08T10:50:37;6.70;;;3.30;;
76136;SDS011;68622;53.128;17.966;2023-07-08T10:53:30;7.50;;;3.50;;
76136;SDS011;68622;53.128;17.966;2023-07-08T10:56:23;9.00;;;3.10;;
76136;SDS011;68622;53.128;17.966;2023-07-08T11:01:43;7.50;;;3.10;;
76136;SDS011;68622;53.128;17.966;2023-07-08T11:07:05;5.80;;;2.90;;
76136;SDS011;68622;53.128;17.966;2023-07-08T11:09:52;6.40;;;2.90;;
76136;SDS011;68622;53.128;17.966;2023-07-08T11:12:35;7.60;;;2.80;;
76136;SDS011;68622;53.128;17.966;2023-07-08T11:15:15;6.00;;;2.60;;
76136;SDS011;68622;53.128;17.966;2023-07-08T11:17:50;7.20;;;2.90;;
76136;SDS011;68622;53.128;17.966;2023-07-08T11:23:26;6.80;;;2.90;;
76136;SDS011;68622;53.128;17.966;2023-07-08T11:26:16;7.00;;;2.90;;
76136;SDS011;68622;53.128;17.966;2023-07-08T11:28:51;9.90;;;3.50;;
76136;SDS011;68622;53.128;17.966;2023-07-08T11:31:22;9.30;;;3.30;;
76136;SDS011;68622;53.128;17.966;2023-07-08T11:33:51;5.50;;;2.50;;
76136;SDS011;68622;53.128;17.966;2023-07-08T11:36:20;7.80;;;3.10;;
76136;SDS011;68622;53.128;17.966;2023-07-08T11:38:49;6.30;;;3.10;;
76136;SDS011;68622;53.128;17.966;2023-07-08T11:41:27;6.50;;;2.70;;
76136;SDS011;68622;53.128;17.966;2023-07-08T11:43:59;6.00;;;3.20;;
76136;SDS011;68622;53.128;17.966;2023-07-08T11:46:31;6.10;;;2.60;;
76136;SDS011;68622;53.128;17.966;2023-07-08T11:49:01;6.80;;;2.70;;
76136;SDS011;68622;53.128;17.966;2023-07-08T11:51:31;5.80;;;2.70;;
76136;SDS011;68622;53.128;17.966;2023-07-08T11:54:13;7.10;;;2.70;;
76136;SDS011;68622;53.128;17.966;2023-07-08T11:56:50;6.60;;;2.80;;
76136;SDS011;68622;53.128;17.966;2023-07-08T11:59:24;6.50;;;2.80;;
76136;SDS011;68622;53.128;17.966;2023-07-08T12:01:54;6.00;;;2.70;;
76136;SDS011;68622;53.128;17.966;2023-07-08T12:07:16;5.90;;;2.60;;
76136;SDS011;68622;53.128;17.966;2023-07-08T12:09:56;7.00;;;2.70;;
76136;SDS011;68622;53.128;17.966;2023-07-08T12:12:31;6.70;;;2.70;;
76136;SDS011;68622;53.128;17.966;2023-07-08T12:15:05;7.20;;;3.00;;
76136;SDS011;68622;53.128;17.966;2023-07-08T12:17:38;8.00;;;2.80;;
76136;SDS011;68622;53.128;17.966;2023-07-08T12:20:06;7.60;;;3.50;;
76136;SDS011;68622;53.128;17.966;2023-07-08T12:22:43;7.10;;;3.10;;
76136;SDS011;68622;53.128;17.966;2023-07-08T12:25:14;5.40;;;2.30;;
76136;SDS011;68622;53.128;17.966;2023-07-08T12:27:44;5.80;;;2.60;;
76136;SDS011;68622;53.128;17.966;2023-07-08T12:30:13;5.40;;;2.80;;
76136;SDS011;68622;53.128;17.966;2023-07-08T12:32:41;6.60;;;3.10;;
76136;SDS011;68622;53.128;17.966;2023-07-08T12:35:22;7.40;;;2.80;;
76136;SDS011;68622;53.128;17.966;2023-07-08T12:37:53;7.10;;;3.00;;
76136;SDS011;68622;53.128;17.966;2023-07-08T12:40:33;5.90;;;2.60;;
76136;SDS011;68622;53.128;17.966;2023-07-08T12:42:59;6.50;;;2.70;;
76136;SDS011;68622;53.128;17.966;2023-07-08T12:45:27;6.70;;;2.80;;
76136;SDS011;68622;53.128;17.966;2023-07-08T12:47:57;5.70;;;2.60;;
76136;SDS011;68622;53.128;17.966;2023-07-08T12:50:23;5.70;;;2.60;;
76136;SDS011;68622;53.128;17.966;2023-07-08T12:52:50;6.80;;;2.90;;
76136;SDS011;68622;53.128;17.966;2023-07-08T12:55:17;6.20;;;2.80;;
76136;SDS011;68622;53.128;17.966;2023-07-08T12:57:45;7.60;;;2.80;;
76136;SDS011;68622;53.128;17.966;2023-07-08T13:00:25;7.80;;;3.40;;
76136;SDS011;68622;53.128;17.966;2023-07-08T13:03:05;6.80;;;3.40;;
76136;SDS011;68622;53.128;17.966;2023-07-08T13:05:44;5.90;;;3.00;;
76136;SDS011;68622;53.128;17.966;2023-07-08T13:08:12;8.30;;;3.20;;
76136;SDS011;68622;53.128;17.966;2023-07-08T13:10:41;8.70;;;3.20;;
76136;SDS011;68622;53.128;17.966;2023-07-08T13:13:11;8.20;;;3.50;;
76136;SDS011;68622;53.128;17.966;2023-07-08T13:15:42;5.10;;;2.90;;
76136;SDS011;68622;53.128;17.966;2023-07-08T13:18:14;6.70;;;2.90;;
76136;SDS011;68622;53.128;17.966;2023-07-08T13:20:47;8.00;;;3.30;;
76136;SDS011;68622;53.128;17.966;2023-07-08T13:23:18;6.90;;;3.50;;
76136;SDS011;68622;53.128;17.966;2023-07-08T13:25:46;5.50;;;2.90;;
76136;SDS011;68622;53.128;17.966;2023-07-08T13:28:36;7.50;;;3.50;;
76136;SDS011;68622;53.128;17.966;2023-07-08T13:31:15;6.20;;;3.10;;
76136;SDS011;68622;53.128;17.966;2023-07-08T13:33:45;7.10;;;3.10;;
76136;SDS011;68622;53.128;17.966;2023-07-08T13:36:15;6.10;;;3.10;;
76136;SDS011;68622;53.128;17.966;2023-07-08T13:38:44;5.90;;;3.20;;
76136;SDS011;68622;53.128;17.966;2023-07-08T13:41:15;6.70;;;3.50;;
76136;SDS011;68622;53.128;17.966;2023-07-08T13:43:46;7.90;;;2.80;;
76136;SDS011;68622;53.128;17.966;2023-07-08T13:49:07;6.50;;;3.20;;
76136;SDS011;68622;53.128;17.966;2023-07-08T13:51:45;7.60;;;3.30;;
76136;SDS011;68622;53.128;17.966;2023-07-08T13:54:14;8.60;;;3.50;;
76136;SDS011;68622;53.128;17.966;2023-07-08T13:56:49;5.30;;;2.70;;
76136;SDS011;68622;53.128;17.966;2023-07-08T13:59:18;6.80;;;3.30;;
76136;SDS011;68622;53.128;17.966;2023-07-08T14:01:50;6.90;;;3.10;;
76136;SDS011;68622;53.128;17.966;2023-07-08T14:04:21;6.70;;;3.10;;
76136;SDS011;68622;53.128;17.966;2023-07-08T14:06:56;7.00;;;3.10;;
76136;SDS011;68622;53.128;17.966;2023-07-08T14:09:23;7.50;;;3.50;;
76136;SDS011;68622;53.128;17.966;2023-07-08T14:11:50;5.80;;;3.00;;
76136;SDS011;68622;53.128;17.966;2023-07-08T14:14:18;5.80;;;2.90;;
76136;SDS011;68622;53.128;17.966;2023-07-08T14:16:48;7.10;;;3.20;;
76136;SDS011;68622;53.128;17.966;2023-07-08T14:19:19;6.60;;;3.40;;
76136;SDS011;68622;53.128;17.966;2023-07-08T14:21:51;7.30;;;3.50;;
76136;SDS011;68622;53.128;17.966;2023-07-08T14:24:21;6.40;;;3.10;;
76136;SDS011;68622;53.128;17.966;2023-07-08T14:26:48;6.10;;;3.20;;
76136;SDS011;68622;53.128;17.966;2023-07-08T14:33:16;7.50;;;3.20;;
76136;SDS011;68622;53.128;17.966;2023-07-08T14:35:43;5.40;;;2.70;;
76136;SDS011;68622;53.128;17.966;2023-07-08T14:38:10;6.30;;;3.10;;
76136;SDS011;68622;53.128;17.966;2023-07-08T14:40:41;7.10;;;3.10;;
76136;SDS011;68622;53.128;17.966;2023-07-08T14:43:16;7.40;;;3.50;;
76136;SDS011;68622;53.128;17.966;2023-07-08T14:45:49;7.50;;;3.50;;
76136;SDS011;68622;53.128;17.966;2023-07-08T14:48:18;7.90;;;2.50;;
76136;SDS011;68622;53.128;17.966;2023-07-08T14:50:45;6.10;;;3.10;;
76136;SDS011;68622;53.128;17.966;2023-07-08T14:53:15;6.70;;;3.30;;
76136;SDS011;68622;53.128;17.966;2023-07-08T14:55:46;6.70;;;3.10;;
76136;SDS011;68622;53.128;17.966;2023-07-08T15:00:54;5.50;;;3.10;;
76136;SDS011;68622;53.128;17.966;2023-07-08T15:03:23;7.20;;;3.20;;
76136;SDS011;68622;53.128;17.966;2023-07-08T15:05:51;5.80;;;3.00;;
76136;SDS011;68622;53.128;17.966;2023-07-08T15:08:18;6.70;;;3.40;;
76136;SDS011;68622;53.128;17.966;2023-07-08T15:10:47;5.50;;;2.50;;
76136;SDS011;68622;53.128;17.966;2023-07-08T15:13:15;10.70;;;3.30;;
76136;SDS011;68622;53.128;17.966;2023-07-08T15:15:46;6.20;;;3.00;;
76136;SDS011;68622;53.128;17.966;2023-07-08T15:18:15;6.80;;;2.80;;
76136;SDS011;68622;53.128;17.966;2023-07-08T15:20:43;8.50;;;3.50;;
76136;SDS011;68622;53.128;17.966;2023-07-08T15:23:10;6.10;;;3.50;;
76136;SDS011;68622;53.128;17.966;2023-07-08T15:25:42;6.30;;;3.00;;
76136;SDS011;68622;53.128;17.966;2023-07-08T15:28:19;5.60;;;2.90;;
76136;SDS011;68622;53.128;17.966;2023-07-08T15:31:00;7.70;;;3.10;;
76136;SDS011;68622;53.128;17.966;2023-07-08T15:33:29;7.30;;;2.90;;
76136;SDS011;68622;53.128;17.966;2023-07-08T15:35:56;6.60;;;3.30;;
76136;SDS011;68622;53.128;17.966;2023-07-08T15:38:23;6.50;;;3.10;;
76136;SDS011;68622;53.128;17.966;2023-07-08T15:40:50;6.20;;;3.00;;
76136;SDS011;68622;53.128;17.966;2023-07-08T15:43:18;6.30;;;2.70;;
76136;SDS011;68622;53.128;17.966;2023-07-08T15:45:45;5.90;;;2.90;;
76136;SDS011;68622;53.128;17.966;2023-07-08T15:48:15;6.50;;;3.10;;
76136;SDS011;68622;53.128;17.966;2023-07-08T15:50:43;6.70;;;3.30;;
76136;SDS011;68622;53.128;17.966;2023-07-08T15:53:11;7.00;;;3.70;;